Terminal Aerodrome Forecast
Issued by NWS Cleveland, OH

Home | Current Version | Previous Version | Text Only | Print | Product List | Glossary Off
Versions: 1 2 3 4 5 6 7 8 9 10 11 12 13 14 15 16

000
FTUS41 KCLE 200500
TAFERI
TAF
KERI 200530Z 2006/2106 16008KT P6SM SCT025 OVC050
     FM200900 19003KT 5SM BR BKN015 OVC025
     FM201500 24006KT P6SM OVC025
     FM201900 32007KT P6SM SCT045=

USA.gov is the U.S. government's official web portal to all federal, state and local government web resources and services.